<?xml version='1.0' encoding='UTF-8'?><gpx version="1.1" creator="JPX - https://github.com/jenetics/jpx" xmlns="http://www.topografix.com/GPX/1/1"><trk><trkseg><trkpt lat="45.911014429336326" lon="10.231309505189053"><ele>237.99999999999997</ele><time>2026-05-03T13:30:41Z</time></trkpt><trkpt lat="45.91095799503729" lon="10.231236178663561"><ele>238.0</ele><time>2026-05-03T13:30:45Z</time></trkpt><trkpt lat="45.91089482254916" lon="10.231194004481525"><ele>238.0</ele><time>2026-05-03T13:30:48Z</time></trkpt><trkpt lat="45.91083251378593" lon="10.231142388160695"><ele>238.0</ele><time>2026-05-03T13:30:51Z</time></trkpt><trkpt lat="45.91080073776222" lon="10.23124738943131"><ele>237.99999999999997</ele><time>2026-05-03T13:30:56Z</time></trkpt><trkpt lat="45.910837987700695" lon="10.231365227376864"><ele>238.0</ele><time>2026-05-03T13:30:59Z</time></trkpt><trkpt lat="45.9108695308831" lon="10.231486294094553"><ele>240.99999999999997</ele><time>2026-05-03T13:31:02Z</time></trkpt><trkpt lat="45.91086576796541" lon="10.23159465725628"><ele>244.0</ele><time>2026-05-03T13:31:04Z</time></trkpt><trkpt lat="45.91087633417566" lon="10.231720191571533"><ele>247.0</ele><time>2026-05-03T13:31:07Z</time></trkpt><trkpt lat="45.91085730717753" lon="10.23182828616309"><ele>250.0</ele><time>2026-05-03T13:31:09Z</time></trkpt><trkpt lat="45.91086213585128" lon="10.231924277050407"><ele>252.99999999999997</ele><time>2026-05-03T13:31:12Z</time></trkpt><trkpt lat="45.91080027735806" lon="10.231888015081092"><ele>256.0</ele><time>2026-05-03T13:31:16Z</time></trkpt><trkpt lat="45.91082960990005" lon="10.23200894058534"><ele>255.99999999999997</ele><time>2026-05-03T13:31:20Z</time></trkpt><trkpt lat="45.91085089475555" lon="10.23210394923157"><ele>256.0</ele><time>2026-05-03T13:31:23Z</time></trkpt><trkpt lat="45.91085590957413" lon="10.232200422672179"><ele>256.0</ele><time>2026-05-03T13:31:28Z</time></trkpt><trkpt lat="45.91083795007621" lon="10.232324117453365"><ele>256.0</ele><time>2026-05-03T13:31:32Z</time></trkpt><trkpt lat="45.910822019473095" lon="10.232428491124733"><ele>255.99999999999997</ele><time>2026-05-03T13:31:35Z</time></trkpt><trkpt lat="45.91081811202286" lon="10.232563708773084"><ele>256.0</ele><time>2026-05-03T13:31:39Z</time></trkpt><trkpt lat="45.91078881074796" lon="10.232675280881573"><ele>259.85714285714283</ele><time>2026-05-03T13:31:41Z</time></trkpt><trkpt lat="45.910807660636934" lon="10.232791596629745"><ele>263.71428571428567</ele><time>2026-05-03T13:31:46Z</time></trkpt><trkpt lat="45.91076746399365" lon="10.232882140551565"><ele>267.57142857142856</ele><time>2026-05-03T13:31:51Z</time></trkpt><trkpt lat="45.91077149170527" lon="10.232983706142386"><ele>271.42857142857144</ele><time>2026-05-03T13:31:54Z</time></trkpt><trkpt lat="45.910753760897194" lon="10.233078878782411"><ele>275.28571428571433</ele><time>2026-05-03T13:31:58Z</time></trkpt><trkpt lat="45.910704912985324" lon="10.233156419156717"><ele>279.14285714285717</ele><time>2026-05-03T13:32:02Z</time></trkpt><trkpt lat="45.910719259653725" lon="10.233263700564445"><ele>283.0</ele><time>2026-05-03T13:32:04Z</time></trkpt><trkpt lat="45.91072601911418" lon="10.233381337079933"><ele>286.8333333333333</ele><time>2026-05-03T13:32:09Z</time></trkpt><trkpt lat="45.91070528969661" lon="10.233481961435134"><ele>290.66666666666663</ele><time>2026-05-03T13:32:14Z</time></trkpt><trkpt lat="45.91067719145474" lon="10.233583579337424"><ele>294.5</ele><time>2026-05-03T13:32:17Z</time></trkpt><trkpt lat="45.9106526431671" lon="10.233669354612031"><ele>298.3333333333333</ele><time>2026-05-03T13:32:19Z</time></trkpt><trkpt lat="45.91061439298819" lon="10.233771747133334"><ele>302.1666666666667</ele><time>2026-05-03T13:32:23.001Z</time></trkpt><trkpt lat="45.91057671642032" lon="10.233875453355482"><ele>306.0</ele><time>2026-05-03T13:32:28.001Z</time></trkpt><trkpt lat="45.910534794088164" lon="10.234005223540215"><ele>309.1666666666667</ele><time>2026-05-03T13:32:33.001Z</time></trkpt><trkpt lat="45.91051453840696" lon="10.234102815179993"><ele>312.3333333333333</ele><time>2026-05-03T13:32:36.001Z</time></trkpt><trkpt lat="45.91051346433662" lon="10.234206004606158"><ele>315.5</ele><time>2026-05-03T13:32:39.001Z</time></trkpt><trkpt lat="45.91045665540367" lon="10.234352546070777"><ele>318.66666666666663</ele><time>2026-05-03T13:32:43.999Z</time></trkpt><trkpt lat="45.910406445977614" lon="10.234459908171335"><ele>321.8333333333333</ele><time>2026-05-03T13:32:48.999Z</time></trkpt><trkpt lat="45.910395189479594" lon="10.234573990218594"><ele>325.0</ele><time>2026-05-03T13:32:51.999Z</time></trkpt><trkpt lat="45.910392062140595" lon="10.234672255885716"><ele>325.0</ele><time>2026-05-03T13:32:53.999Z</time></trkpt><trkpt lat="45.91043071776955" lon="10.234746271185625"><ele>325.0</ele><time>2026-05-03T13:32:55.999Z</time></trkpt><trkpt lat="45.910478510156494" lon="10.234831022435626"><ele>325.0</ele><time>2026-05-03T13:33:00Z</time></trkpt><trkpt lat="45.91050349600451" lon="10.234925811830871"><ele>325.0</ele><time>2026-05-03T13:33:06Z</time></trkpt><trkpt lat="45.91051414711861" lon="10.235023796786654"><ele>325.0</ele><time>2026-05-03T13:33:10Z</time></trkpt><trkpt lat="45.910497541992385" lon="10.235113530521732"><ele>325.0</ele><time>2026-05-03T13:33:15Z</time></trkpt><trkpt lat="45.91048378394149" lon="10.235305048139745"><ele>328.66666666666663</ele><time>2026-05-03T13:33:18Z</time></trkpt><trkpt lat="45.910425442653256" lon="10.235349036458741"><ele>332.3333333333333</ele><time>2026-05-03T13:33:23Z</time></trkpt><trkpt lat="45.91040660695993" lon="10.235463090407032"><ele>336.0</ele><time>2026-05-03T13:33:26Z</time></trkpt><trkpt lat="45.91037243009492" lon="10.23557555171059"><ele>339.6666666666667</ele><time>2026-05-03T13:33:29Z</time></trkpt><trkpt lat="45.91038583111693" lon="10.235693178979274"><ele>343.33333333333337</ele><time>2026-05-03T13:33:35Z</time></trkpt><trkpt lat="45.910376819275726" lon="10.235793654404416"><ele>347.0</ele><time>2026-05-03T13:33:38Z</time></trkpt><trkpt lat="45.910345187070085" lon="10.23587302165731"><ele>349.33333333333337</ele><time>2026-05-03T13:33:43Z</time></trkpt><trkpt lat="45.91030329198863" lon="10.235957944801894"><ele>351.6666666666667</ele><time>2026-05-03T13:33:51Z</time></trkpt><trkpt lat="45.91026720420421" lon="10.23604486429748"><ele>354.0</ele><time>2026-05-03T13:33:55Z</time></trkpt><trkpt lat="45.91023218972285" lon="10.236131362591511"><ele>356.3333333333333</ele><time>2026-05-03T13:33:59Z</time></trkpt><trkpt lat="45.910150603187084" lon="10.236233233941354"><ele>358.66666666666663</ele><time>2026-05-03T13:34:04Z</time></trkpt><trkpt lat="45.91013194914673" lon="10.236322210710986"><ele>361.0</ele><time>2026-05-03T13:34:08Z</time></trkpt><trkpt lat="45.91009276178371" lon="10.236402943850335"><ele>364.5</ele><time>2026-05-03T13:34:12Z</time></trkpt><trkpt lat="45.91006060464915" lon="10.23648774506822"><ele>368.0</ele><time>2026-05-03T13:34:17Z</time></trkpt><trkpt lat="45.909979808333894" lon="10.236472001627126"><ele>371.5</ele><time>2026-05-03T13:34:21Z</time></trkpt><trkpt lat="45.90991247106464" lon="10.236519066625421"><ele>375.0</ele><time>2026-05-03T13:34:26Z</time></trkpt><trkpt lat="45.90983643045226" lon="10.236558683852987"><ele>378.5</ele><time>2026-05-03T13:34:29.001Z</time></trkpt><trkpt lat="45.90975778390253" lon="10.2365655995519"><ele>382.0</ele><time>2026-05-03T13:34:34.001Z</time></trkpt><trkpt lat="45.909705501177015" lon="10.23662653364567"><ele>382.0</ele><time>2026-05-03T13:34:37.001Z</time></trkpt><trkpt lat="45.909639909417244" lon="10.236679042719755"><ele>382.0</ele><time>2026-05-03T13:34:41.001Z</time></trkpt><trkpt lat="45.90958427740309" lon="10.236724285869917"><ele>382.0</ele><time>2026-05-03T13:34:44.001Z</time></trkpt><trkpt lat="45.90952373110262" lon="10.23679590968383"><ele>382.0</ele><time>2026-05-03T13:34:48.001Z</time></trkpt><trkpt lat="45.90944361300097" lon="10.236797334184189"><ele>382.0</ele><time>2026-05-03T13:34:54Z</time></trkpt><trkpt lat="45.90938304177348" lon="10.236907510262814"><ele>382.0</ele><time>2026-05-03T13:34:58Z</time></trkpt><trkpt lat="45.909376998738296" lon="10.237030476349574"><ele>382.0</ele><time>2026-05-03T13:35:00Z</time></trkpt><trkpt lat="45.909364373034684" lon="10.23714088056299"><ele>382.0</ele><time>2026-05-03T13:35:02Z</time></trkpt><trkpt lat="45.909336954478256" lon="10.237253716414697"><ele>382.0</ele><time>2026-05-03T13:35:05Z</time></trkpt><trkpt lat="45.90935945827255" lon="10.237374378703283"><ele>382.0</ele><time>2026-05-03T13:35:07Z</time></trkpt><trkpt lat="45.90934680117704" lon="10.237486707072554"><ele>382.0</ele><time>2026-05-03T13:35:09Z</time></trkpt><trkpt lat="45.909326831491384" lon="10.237575485800923"><ele>382.0</ele><time>2026-05-03T13:35:11Z</time></trkpt><trkpt lat="45.90928625989865" lon="10.237679289074709"><ele>383.5714285714286</ele><time>2026-05-03T13:35:14Z</time></trkpt><trkpt lat="45.909281367260604" lon="10.237783288070453"><ele>385.1428571428571</ele><time>2026-05-03T13:35:16Z</time></trkpt><trkpt lat="45.90926585370038" lon="10.237882358527816"><ele>386.7142857142857</ele><time>2026-05-03T13:35:19Z</time></trkpt><trkpt lat="45.90924903446134" lon="10.237980429269344"><ele>388.28571428571433</ele><time>2026-05-03T13:35:22Z</time></trkpt><trkpt lat="45.9092733651633" lon="10.238084277785097"><ele>389.8571428571429</ele><time>2026-05-03T13:35:25Z</time></trkpt><trkpt lat="45.90929689710332" lon="10.238189453705175"><ele>391.42857142857144</ele><time>2026-05-03T13:35:28Z</time></trkpt><trkpt lat="45.90929480774389" lon="10.238281699666143"><ele>393.0</ele><time>2026-05-03T13:35:33Z</time></trkpt><trkpt lat="45.909303986050986" lon="10.238386236694415"><ele>396.7142857142857</ele><time>2026-05-03T13:35:39Z</time></trkpt><trkpt lat="45.90933011990655" lon="10.238503425125487"><ele>400.42857142857144</ele><time>2026-05-03T13:35:44Z</time></trkpt><trkpt lat="45.90935631636824" lon="10.238600447614093"><ele>404.1428571428571</ele><time>2026-05-03T13:35:47Z</time></trkpt><trkpt lat="45.90937019132991" lon="10.238695365112921"><ele>407.8571428571429</ele><time>2026-05-03T13:35:50Z</time></trkpt><trkpt lat="45.909398925390626" lon="10.238788544557924"><ele>411.57142857142856</ele><time>2026-05-03T13:35:53Z</time></trkpt><trkpt lat="45.909421806251" lon="10.23890077452217"><ele>415.2857142857143</ele><time>2026-05-03T13:35:56Z</time></trkpt><trkpt lat="45.90941760877505" lon="10.238995856942148"><ele>419.0</ele><time>2026-05-03T13:36:00Z</time></trkpt><trkpt lat="45.9094140080504" lon="10.239089579707061"><ele>423.3333333333333</ele><time>2026-05-03T13:36:03Z</time></trkpt><trkpt lat="45.90943677978516" lon="10.239187115526635"><ele>427.66666666666663</ele><time>2026-05-03T13:36:07Z</time></trkpt><trkpt lat="45.9094079196278" lon="10.239271759100165"><ele>432.0</ele><time>2026-05-03T13:36:12.022Z</time></trkpt><trkpt lat="45.909407475911785" lon="10.239389874841914"><ele>436.33333333333337</ele><time>2026-05-03T13:36:13.025Z</time></trkpt><trkpt lat="45.90941040247527" lon="10.239512056999656"><ele>440.6666666666667</ele><time>2026-05-03T13:36:20.001Z</time></trkpt><trkpt lat="45.909476364938776" lon="10.239610983517919"><ele>445.0</ele><time>2026-05-03T13:36:34.001Z</time></trkpt><trkpt lat="45.90956606000342" lon="10.239632395346117"><ele>445.00000000000006</ele><time>2026-05-03T13:36:36.001Z</time></trkpt><trkpt lat="45.909645562639966" lon="10.239702786941443"><ele>445.0</ele><time>2026-05-03T13:36:38.001Z</time></trkpt><trkpt lat="45.90970292903064" lon="10.239764504671497"><ele>445.0</ele><time>2026-05-03T13:36:40.001Z</time></trkpt><trkpt lat="45.90976575501898" lon="10.239796267831704"><ele>445.0</ele><time>2026-05-03T13:36:42.001Z</time></trkpt><trkpt lat="45.90984673980859" lon="10.239836150649635"><ele>445.00000000000006</ele><time>2026-05-03T13:36:44.001Z</time></trkpt><trkpt lat="45.90991482273583" lon="10.239787603579076"><ele>445.0</ele><time>2026-05-03T13:36:49.001Z</time></trkpt><trkpt lat="45.90999283480848" lon="10.239780893862804"><ele>445.0</ele><time>2026-05-03T13:36:51.001Z</time></trkpt><trkpt lat="45.91006375162997" lon="10.23976109354083"><ele>445.0</ele><time>2026-05-03T13:36:53.001Z</time></trkpt><trkpt lat="45.91013304790804" lon="10.239763082965863"><ele>445.0</ele><time>2026-05-03T13:36:56Z</time></trkpt><trkpt lat="45.91029281798912" lon="10.239794187632302"><ele>445.0</ele><time>2026-05-03T13:37:04Z</time></trkpt><trkpt lat="45.91031839988763" lon="10.239918793773299"><ele>445.0</ele><time>2026-05-03T13:37:08Z</time></trkpt><trkpt lat="45.91031272691819" lon="10.24004450907464"><ele>449.1666666666667</ele><time>2026-05-03T13:37:12Z</time></trkpt><trkpt lat="45.9102886644453" lon="10.240133747008954"><ele>453.33333333333337</ele><time>2026-05-03T13:37:18Z</time></trkpt><trkpt lat="45.910247346038936" lon="10.24021198846501"><ele>457.5</ele><time>2026-05-03T13:37:20Z</time></trkpt><trkpt lat="45.91018868062879" lon="10.24032950353707"><ele>461.66666666666663</ele><time>2026-05-03T13:37:22Z</time></trkpt><trkpt lat="45.91008352480153" lon="10.240379871563768"><ele>465.8333333333333</ele><time>2026-05-03T13:37:32Z</time></trkpt><trkpt lat="45.91004605622218" lon="10.240454873666781"><ele>470.0</ele><time>2026-05-03T13:37:36Z</time></trkpt><trkpt lat="45.909986009038576" lon="10.2405211178362"><ele>470.0</ele><time>2026-05-03T13:37:41Z</time></trkpt><trkpt lat="45.90994655384361" lon="10.24061127753685"><ele>469.99999999999994</ele><time>2026-05-03T13:37:45Z</time></trkpt><trkpt lat="45.9098885368135" lon="10.240675385599957"><ele>470.0</ele><time>2026-05-03T13:37:51Z</time></trkpt><trkpt lat="45.90986221414089" lon="10.240768787099324"><ele>470.0</ele><time>2026-05-03T13:37:54Z</time></trkpt><trkpt lat="45.9097785351165" lon="10.240796311393826"><ele>469.99999999999994</ele><time>2026-05-03T13:38:02Z</time></trkpt><trkpt lat="45.909736596981446" lon="10.24087010051754"><ele>470.0</ele><time>2026-05-03T13:38:06Z</time></trkpt><trkpt lat="45.90969768439097" lon="10.240962737741818"><ele>470.0</ele><time>2026-05-03T13:38:08.001Z</time></trkpt><trkpt lat="45.90963106443444" lon="10.241047234168603"><ele>473.85714285714283</ele><time>2026-05-03T13:38:12.001Z</time></trkpt><trkpt lat="45.909602399820926" lon="10.241141836272126"><ele>477.71428571428567</ele><time>2026-05-03T13:38:17.001Z</time></trkpt><trkpt lat="45.90955846495615" lon="10.241227817156087"><ele>481.57142857142856</ele><time>2026-05-03T13:38:22.001Z</time></trkpt><trkpt lat="45.90948329467363" lon="10.24127206459941"><ele>485.42857142857144</ele><time>2026-05-03T13:38:27.001Z</time></trkpt><trkpt lat="45.90944208431536" lon="10.241347939794204"><ele>489.2857142857143</ele><time>2026-05-03T13:38:31.001Z</time></trkpt><trkpt lat="45.909410863400446" lon="10.241447368740786"><ele>493.1428571428571</ele><time>2026-05-03T13:38:36.001Z</time></trkpt><trkpt lat="45.909398508548286" lon="10.241545833472415"><ele>497.0</ele><time>2026-05-03T13:38:38.001Z</time></trkpt><trkpt lat="45.90937637553062" lon="10.241638573495933"><ele>500.99999999999994</ele><time>2026-05-03T13:38:41.001Z</time></trkpt><trkpt lat="45.909329435848655" lon="10.241704144961941"><ele>505.0</ele><time>2026-05-03T13:38:44.001Z</time></trkpt><trkpt lat="45.909302808522604" lon="10.24179670863544"><ele>509.0</ele><time>2026-05-03T13:38:46.001Z</time></trkpt><trkpt lat="45.909283929996356" lon="10.241917418585455"><ele>513.0</ele><time>2026-05-03T13:38:49.001Z</time></trkpt><trkpt lat="45.909237508878164" lon="10.24207092367955"><ele>517.0</ele><time>2026-05-03T13:38:52.001Z</time></trkpt><trkpt lat="45.909236246839455" lon="10.242203759624026"><ele>521.0</ele><time>2026-05-03T13:38:55.001Z</time></trkpt><trkpt lat="45.90920543273001" lon="10.242283908887979"><ele>523.6666666666666</ele><time>2026-05-03T13:39:00.001Z</time></trkpt><trkpt lat="45.90916090282499" lon="10.242416246792846"><ele>526.3333333333333</ele><time>2026-05-03T13:39:05Z</time></trkpt><trkpt lat="45.9091107528545" lon="10.242475143993545"><ele>529.0</ele><time>2026-05-03T13:39:09Z</time></trkpt><trkpt lat="45.90909543664585" lon="10.24257498497135"><ele>531.6666666666666</ele><time>2026-05-03T13:39:15Z</time></trkpt><trkpt lat="45.90911227534084" lon="10.242673777383933"><ele>534.3333333333334</ele><time>2026-05-03T13:39:20Z</time></trkpt><trkpt lat="45.90911104688615" lon="10.242767865206591"><ele>537.0</ele><time>2026-05-03T13:39:24Z</time></trkpt><trkpt lat="45.90912084727908" lon="10.242877587298562"><ele>537.0</ele><time>2026-05-03T13:39:28Z</time></trkpt><trkpt lat="45.90913217028251" lon="10.24299566105835"><ele>537.0</ele><time>2026-05-03T13:39:32Z</time></trkpt><trkpt lat="45.90909632220142" lon="10.243074168055573"><ele>537.0</ele><time>2026-05-03T13:39:36Z</time></trkpt><trkpt lat="45.909045836273954" lon="10.243186261351772"><ele>537.0</ele><time>2026-05-03T13:39:42Z</time></trkpt><trkpt lat="45.90903977943886" lon="10.243286220686267"><ele>537.0</ele><time>2026-05-03T13:39:45Z</time></trkpt><trkpt lat="45.90901641087387" lon="10.243401349363788"><ele>537.0</ele><time>2026-05-03T13:39:48Z</time></trkpt><trkpt lat="45.90893625889302" lon="10.243367471731155"><ele>540.5</ele><time>2026-05-03T13:39:50Z</time></trkpt><trkpt lat="45.908898187448884" lon="10.243440956902278"><ele>544.0</ele><time>2026-05-03T13:39:54Z</time></trkpt><trkpt lat="45.90887633109405" lon="10.243555652963455"><ele>547.5</ele><time>2026-05-03T13:39:57Z</time></trkpt><trkpt lat="45.908910638564834" lon="10.243641508018007"><ele>551.0</ele><time>2026-05-03T13:39:59Z</time></trkpt><trkpt lat="45.90895599747694" lon="10.243765225269172"><ele>554.5</ele><time>2026-05-03T13:40:03Z</time></trkpt><trkpt lat="45.90900225789409" lon="10.243838062146038"><ele>558.0</ele><time>2026-05-03T13:40:06Z</time></trkpt><trkpt lat="45.90906365784889" lon="10.243901263400804"><ele>560.6666666666666</ele><time>2026-05-03T13:40:11Z</time></trkpt><trkpt lat="45.90901320532021" lon="10.243977842034631"><ele>563.3333333333334</ele><time>2026-05-03T13:40:16Z</time></trkpt><trkpt lat="45.90902632039863" lon="10.244082052552555"><ele>566.0</ele><time>2026-05-03T13:40:20.001Z</time></trkpt><trkpt lat="45.90898490042686" lon="10.244172701299366"><ele>568.6666666666667</ele><time>2026-05-03T13:40:23.001Z</time></trkpt><trkpt lat="45.908963937179735" lon="10.244276168792137"><ele>571.3333333333334</ele><time>2026-05-03T13:40:27.001Z</time></trkpt><trkpt lat="45.90890059204562" lon="10.244316892311812"><ele>574.0</ele><time>2026-05-03T13:40:34.001Z</time></trkpt><trkpt lat="45.90880553265537" lon="10.244277677995166"><ele>574.0</ele><time>2026-05-03T13:40:36.001Z</time></trkpt><trkpt lat="45.908735544982655" lon="10.24434073495799"><ele>574.0</ele><time>2026-05-03T13:40:41.001Z</time></trkpt><trkpt lat="45.90868043113778" lon="10.244276853218485"><ele>574.0</ele><time>2026-05-03T13:40:45.001Z</time></trkpt><trkpt lat="45.90859889730748" lon="10.244165402377691"><ele>574.0</ele><time>2026-05-03T13:40:48.001Z</time></trkpt><trkpt lat="45.90854931863814" lon="10.244106003695345"><ele>574.0</ele><time>2026-05-03T13:40:50.001Z</time></trkpt><trkpt lat="45.90850393794625" lon="10.24400080004646"><ele>574.0</ele><time>2026-05-03T13:40:54.001Z</time></trkpt><trkpt lat="45.9084588529504" lon="10.243930643028143"><ele>574.3333333333334</ele><time>2026-05-03T13:40:56.001Z</time></trkpt><trkpt lat="45.90839813931889" lon="10.243898592984998"><ele>574.6666666666667</ele><time>2026-05-03T13:40:59.001Z</time></trkpt><trkpt lat="45.90832205931275" lon="10.243983223223584"><ele>575.0</ele><time>2026-05-03T13:41:03.001Z</time></trkpt><trkpt lat="45.908225327967024" lon="10.244020381981139"><ele>575.3333333333334</ele><time>2026-05-03T13:41:05.001Z</time></trkpt><trkpt lat="45.90814165195452" lon="10.24404409415138"><ele>575.6666666666666</ele><time>2026-05-03T13:41:07.999Z</time></trkpt><trkpt lat="45.90807836987522" lon="10.244159253423515"><ele>576.0</ele><time>2026-05-03T13:41:10.999Z</time></trkpt><trkpt lat="45.90810965700016" lon="10.244294768114285"><ele>577.8571428571429</ele><time>2026-05-03T13:41:11.999Z</time></trkpt><trkpt lat="45.90812359787121" lon="10.24439014373285"><ele>579.7142857142858</ele><time>2026-05-03T13:41:12.999Z</time></trkpt><trkpt lat="45.908129532247315" lon="10.244481043473396"><ele>581.5714285714286</ele><time>2026-05-03T13:41:14.999Z</time></trkpt><trkpt lat="45.90807593754504" lon="10.244542290708871"><ele>583.4285714285714</ele><time>2026-05-03T13:41:16.999Z</time></trkpt><trkpt lat="45.90802427591452" lon="10.24447014331611"><ele>585.2857142857142</ele><time>2026-05-03T13:41:19.999Z</time></trkpt><trkpt lat="45.90798691890731" lon="10.244382514114438"><ele>587.1428571428571</ele><time>2026-05-03T13:41:23.999Z</time></trkpt><trkpt lat="45.90791927710495" lon="10.244331424921716"><ele>589.0</ele><time>2026-05-03T13:41:26.999Z</time></trkpt><trkpt lat="45.907844171688254" lon="10.244282462916123"><ele>589.0</ele><time>2026-05-03T13:41:30Z</time></trkpt><trkpt lat="45.90776544480204" lon="10.244228333500619"><ele>589.0</ele><time>2026-05-03T13:41:33Z</time></trkpt><trkpt lat="45.907702306198956" lon="10.244161068341294"><ele>589.0</ele><time>2026-05-03T13:41:36Z</time></trkpt><trkpt lat="45.907617116510906" lon="10.244087662678943"><ele>589.0</ele><time>2026-05-03T13:41:38Z</time></trkpt><trkpt lat="45.90756533081385" lon="10.243990109977155"><ele>589.0</ele><time>2026-05-03T13:41:41Z</time></trkpt><trkpt lat="45.907520785179024" lon="10.243923312572193"><ele>589.0</ele><time>2026-05-03T13:41:44Z</time></trkpt><trkpt lat="45.9074802506746" lon="10.243845311006824"><ele>596.5</ele><time>2026-05-03T13:41:49Z</time></trkpt><trkpt lat="45.907415432018034" lon="10.243782416067443"><ele>604.0</ele><time>2026-05-03T13:41:56Z</time></trkpt><trkpt lat="45.907348857965765" lon="10.24374723672253"><ele>611.5</ele><time>2026-05-03T13:41:59Z</time></trkpt><trkpt lat="45.90729911880309" lon="10.243653941718334"><ele>619.0</ele><time>2026-05-03T13:42:03Z</time></trkpt><trkpt lat="45.90727181278687" lon="10.243546541883385"><ele>626.5</ele><time>2026-05-03T13:42:06Z</time></trkpt><trkpt lat="45.90723531519047" lon="10.243453521068076"><ele>634.0</ele><time>2026-05-03T13:42:09Z</time></trkpt><trkpt lat="45.90716497420011" lon="10.243514251059484"><ele>634.0</ele><time>2026-05-03T13:42:14Z</time></trkpt><trkpt lat="45.9070547693099" lon="10.243517765812909"><ele>634.0</ele><time>2026-05-03T13:42:19Z</time></trkpt><trkpt lat="45.906972531620085" lon="10.243522473588538"><ele>634.0</ele><time>2026-05-03T13:42:22Z</time></trkpt><trkpt lat="45.90690453430723" lon="10.243518016168828"><ele>634.0</ele><time>2026-05-03T13:42:24Z</time></trkpt><trkpt lat="45.90681216429465" lon="10.243573682032494"><ele>634.0</ele><time>2026-05-03T13:42:27Z</time></trkpt><trkpt lat="45.90676050176442" lon="10.243634427099222"><ele>634.0</ele><time>2026-05-03T13:42:29Z</time></trkpt><trkpt lat="45.90666897106889" lon="10.24360323865107"><ele>642.6</ele><time>2026-05-03T13:42:31.001Z</time></trkpt><trkpt lat="45.90659742175601" lon="10.243592329741192"><ele>651.2</ele><time>2026-05-03T13:42:33.001Z</time></trkpt><trkpt lat="45.90654996307041" lon="10.243486344348348"><ele>659.8000000000001</ele><time>2026-05-03T13:42:36.001Z</time></trkpt><trkpt lat="45.90641346348457" lon="10.243562497761825"><ele>668.4</ele><time>2026-05-03T13:42:41.001Z</time></trkpt><trkpt lat="45.90631866275322" lon="10.243566145895754"><ele>677.0</ele><time>2026-05-03T13:42:44.001Z</time></trkpt><trkpt lat="45.90625986720184" lon="10.243533708256793"><ele>677.0</ele><time>2026-05-03T13:42:45.001Z</time></trkpt><trkpt lat="45.906206788823155" lon="10.24346364185203"><ele>677.0</ele><time>2026-05-03T13:42:47.001Z</time></trkpt><trkpt lat="45.90612557219268" lon="10.243441796231473"><ele>677.0</ele><time>2026-05-03T13:42:50.001Z</time></trkpt><trkpt lat="45.90605854931263" lon="10.243444796676918"><ele>677.0</ele><time>2026-05-03T13:42:52.016Z</time></trkpt><trkpt lat="45.9062148665699" lon="10.243548396505554"><ele>677.0</ele><time>2026-05-03T13:42:54.02Z</time></trkpt><trkpt lat="45.90591113834743" lon="10.244320561207214"><ele>680.8</ele><time>2026-05-03T13:43:41.001Z</time></trkpt><trkpt lat="45.90573218542625" lon="10.244294095980012"><ele>684.6</ele><time>2026-05-03T13:43:43.001Z</time></trkpt><trkpt lat="45.90569150975649" lon="10.244371858077471"><ele>688.4</ele><time>2026-05-03T13:43:45.001Z</time></trkpt><trkpt lat="45.9056374615904" lon="10.24443684119687"><ele>692.1999999999999</ele><time>2026-05-03T13:43:48Z</time></trkpt><trkpt lat="45.905575075170596" lon="10.2444551014497"><ele>696.0</ele><time>2026-05-03T13:43:56Z</time></trkpt><trkpt lat="45.90545890556749" lon="10.244598867385815"><ele>696.0</ele><time>2026-05-03T13:43:59Z</time></trkpt><trkpt lat="45.90539558555729" lon="10.244661912097245"><ele>696.0</ele><time>2026-05-03T13:44:03Z</time></trkpt><trkpt lat="45.905298256204475" lon="10.24466831054486"><ele>696.0</ele><time>2026-05-03T13:44:07Z</time></trkpt><trkpt lat="45.90521609071496" lon="10.244682670290592"><ele>696.0</ele><time>2026-05-03T13:44:10Z</time></trkpt><trkpt lat="45.90513789427033" lon="10.24470044853873"><ele>696.0</ele><time>2026-05-03T13:44:14Z</time></trkpt><trkpt lat="45.90506082168812" lon="10.244725267851058"><ele>696.0</ele><time>2026-05-03T13:44:19Z</time></trkpt><trkpt lat="45.904985974241704" lon="10.244809164112148"><ele>700.3333333333334</ele><time>2026-05-03T13:44:24Z</time></trkpt><trkpt lat="45.90486932827046" lon="10.24477712005268"><ele>704.6666666666667</ele><time>2026-05-03T13:44:26Z</time></trkpt><trkpt lat="45.90480340257671" lon="10.244374509351267"><ele>709.0</ele><time>2026-05-03T13:44:27Z</time></trkpt><trkpt lat="45.90477979544064" lon="10.2442582888376"><ele>709.0</ele><time>2026-05-03T13:44:30Z</time></trkpt><trkpt lat="45.90471661092242" lon="10.244245990556482"><ele>709.0</ele><time>2026-05-03T13:44:33Z</time></trkpt><trkpt lat="45.90465600824337" lon="10.244295244168526"><ele>709.0</ele><time>2026-05-03T13:44:38Z</time></trkpt><trkpt lat="45.90456683972426" lon="10.244262420059943"><ele>709.0</ele><time>2026-05-03T13:44:41Z</time></trkpt><trkpt lat="45.904481234258576" lon="10.244273537716712"><ele>709.0</ele><time>2026-05-03T13:44:44Z</time></trkpt><trkpt lat="45.90441766609867" lon="10.244218713344937"><ele>709.0</ele><time>2026-05-03T13:44:49.001Z</time></trkpt><trkpt lat="45.90433382889539" lon="10.244173829306941"><ele>709.0</ele><time>2026-05-03T13:44:51.001Z</time></trkpt><trkpt lat="45.90426342445113" lon="10.244107653367307"><ele>709.0</ele><time>2026-05-03T13:44:53.001Z</time></trkpt><trkpt lat="45.9041861604013" lon="10.244071163697843"><ele>709.0</ele><time>2026-05-03T13:44:56.001Z</time></trkpt><trkpt lat="45.90409479219496" lon="10.244015467311506"><ele>709.0</ele><time>2026-05-03T13:45:00.001Z</time></trkpt><trkpt lat="45.904000069215655" lon="10.243990611557084"><ele>709.0</ele><time>2026-05-03T13:45:03.001Z</time></trkpt><trkpt lat="45.90388557979634" lon="10.243920769772858"><ele>711.8000000000001</ele><time>2026-05-03T13:45:04.001Z</time></trkpt><trkpt lat="45.903745675738506" lon="10.243851964177042"><ele>714.6</ele><time>2026-05-03T13:45:12.001Z</time></trkpt><trkpt lat="45.90365715346802" lon="10.243781387857071"><ele>717.4</ele><time>2026-05-03T13:45:16.001Z</time></trkpt><trkpt lat="45.90359830600414" lon="10.243694063191256"><ele>720.2</ele><time>2026-05-03T13:45:19.001Z</time></trkpt><trkpt lat="45.90352596958202" lon="10.243633884179014"><ele>723.0</ele><time>2026-05-03T13:45:22.001Z</time></trkpt><trkpt lat="45.90346543600432" lon="10.243594655423518"><ele>727.1666666666666</ele><time>2026-05-03T13:45:24.001Z</time></trkpt><trkpt lat="45.90339941234296" lon="10.243505752936796"><ele>731.3333333333334</ele><time>2026-05-03T13:45:27.001Z</time></trkpt><trkpt lat="45.90334338197393" lon="10.24346164686837"><ele>735.5</ele><time>2026-05-03T13:45:31.001Z</time></trkpt><trkpt lat="45.903277965133015" lon="10.243393080475068"><ele>739.6666666666667</ele><time>2026-05-03T13:45:33.001Z</time></trkpt><trkpt lat="45.90322074000366" lon="10.243336796752269"><ele>743.8333333333334</ele><time>2026-05-03T13:45:35.001Z</time></trkpt><trkpt lat="45.90315066138693" lon="10.243438542202924"><ele>748.0</ele><time>2026-05-03T13:45:44.001Z</time></trkpt><trkpt lat="45.902945001664584" lon="10.243377775602134"><ele>748.0</ele><time>2026-05-03T13:45:46.001Z</time></trkpt><trkpt lat="45.902835970959686" lon="10.243456897967393"><ele>748.0</ele><time>2026-05-03T13:45:49.001Z</time></trkpt><trkpt lat="45.90276942063694" lon="10.243531518529775"><ele>748.0</ele><time>2026-05-03T13:45:52Z</time></trkpt><trkpt lat="45.90269191331217" lon="10.243572398412825"><ele>748.0</ele><time>2026-05-03T13:45:54Z</time></trkpt><trkpt lat="45.90261769117027" lon="10.243601580133262"><ele>748.0</ele><time>2026-05-03T13:45:57Z</time></trkpt><trkpt lat="45.90253111883144" lon="10.243613456390657"><ele>751.1666666666667</ele><time>2026-05-03T13:46:00Z</time></trkpt><trkpt lat="45.902451713044236" lon="10.243582610299361"><ele>754.3333333333334</ele><time>2026-05-03T13:46:03Z</time></trkpt><trkpt lat="45.90253695576223" lon="10.243532625335082"><ele>757.5</ele><time>2026-05-03T13:46:04Z</time></trkpt><trkpt lat="45.90250039922466" lon="10.24342829924135"><ele>760.6666666666666</ele><time>2026-05-03T13:46:06Z</time></trkpt><trkpt lat="45.90242232074754" lon="10.24336960845104"><ele>763.8333333333333</ele><time>2026-05-03T13:46:12Z</time></trkpt><trkpt lat="45.902379215661895" lon="10.243298939724243"><ele>767.0</ele><time>2026-05-03T13:46:16Z</time></trkpt><trkpt lat="45.902334835048315" lon="10.243222168593949"><ele>767.0</ele><time>2026-05-03T13:46:20Z</time></trkpt><trkpt lat="45.9022904862421" lon="10.243156975384439"><ele>767.0</ele><time>2026-05-03T13:46:26Z</time></trkpt><trkpt lat="45.9022846083719" lon="10.243048125657339"><ele>767.0</ele><time>2026-05-03T13:46:30Z</time></trkpt><trkpt lat="45.90217380302764" lon="10.242857247720229"><ele>767.0</ele><time>2026-05-03T13:46:36Z</time></trkpt><trkpt lat="45.90213797793039" lon="10.242766197836456"><ele>767.0</ele><time>2026-05-03T13:46:37Z</time></trkpt><trkpt lat="45.90208575866751" lon="10.242624124606413"><ele>763.3333333333333</ele><time>2026-05-03T13:46:39Z</time></trkpt><trkpt lat="45.90226929716951" lon="10.242662128598422"><ele>759.6666666666666</ele><time>2026-05-03T13:46:41Z</time></trkpt><trkpt lat="45.9023707496057" lon="10.242818040973944"><ele>756.0</ele><time>2026-05-03T13:46:42.001Z</time></trkpt><trkpt lat="45.90230864369125" lon="10.2426655125618"><ele>756.0</ele><time>2026-05-03T13:46:46.001Z</time></trkpt><trkpt lat="45.9022844940086" lon="10.242549450717599"><ele>756.0</ele><time>2026-05-03T13:46:50.017Z</time></trkpt><trkpt lat="45.90225730953593" lon="10.242424270686207"><ele>756.0</ele><time>2026-05-03T13:46:53.001Z</time></trkpt><trkpt lat="45.90217240159045" lon="10.242570256823898"><ele>756.0</ele><time>2026-05-03T13:47:15.001Z</time></trkpt><trkpt lat="45.90227090260831" lon="10.242317254992024"><ele>756.0</ele><time>2026-05-03T13:47:18.001Z</time></trkpt><trkpt lat="45.902352136570826" lon="10.242447183474773"><ele>756.0</ele><time>2026-05-03T13:49:07.999Z</time></trkpt><trkpt lat="45.902282616566374" lon="10.242480820815096"><ele>756.0</ele><time>2026-05-03T13:53:27.001Z</time></trkpt><trkpt lat="45.90226758220515" lon="10.242376875969297"><ele>756.0</ele><time>2026-05-03T13:53:31.001Z</time></trkpt><trkpt lat="45.90222624679685" lon="10.2422901609353"><ele>756.0</ele><time>2026-05-03T13:53:35.001Z</time></trkpt><trkpt lat="45.90219152111147" lon="10.242199394452381"><ele>756.0</ele><time>2026-05-03T13:53:40.001Z</time></trkpt><trkpt lat="45.90217708241973" lon="10.242105108837226"><ele>754.8571428571429</ele><time>2026-05-03T13:53:44.001Z</time></trkpt><trkpt lat="45.90216069895719" lon="10.242006671331067"><ele>753.7142857142858</ele><time>2026-05-03T13:53:48.001Z</time></trkpt><trkpt lat="45.90222670761133" lon="10.241944497507228"><ele>752.5714285714286</ele><time>2026-05-03T13:53:53.001Z</time></trkpt><trkpt lat="45.90220692752393" lon="10.241820193622354"><ele>751.4285714285714</ele><time>2026-05-03T13:53:57.001Z</time></trkpt><trkpt lat="45.902250554546384" lon="10.241751265690565"><ele>750.2857142857143</ele><time>2026-05-03T13:54:02.001Z</time></trkpt><trkpt lat="45.90223600745297" lon="10.241661550711843"><ele>749.1428571428571</ele><time>2026-05-03T13:54:05.001Z</time></trkpt><trkpt lat="45.90224364792268" lon="10.241563289198789"><ele>748.0</ele><time>2026-05-03T13:54:08.001Z</time></trkpt><trkpt lat="45.902195323152725" lon="10.241489634253886"><ele>746.0</ele><time>2026-05-03T13:54:10.001Z</time></trkpt><trkpt lat="45.90217589002792" lon="10.24136300961761"><ele>744.0</ele><time>2026-05-03T13:54:14.001Z</time></trkpt><trkpt lat="45.90215495124063" lon="10.241260509432246"><ele>742.0</ele><time>2026-05-03T13:54:17.001Z</time></trkpt><trkpt lat="45.9021219488653" lon="10.241160671255482"><ele>740.0</ele><time>2026-05-03T13:54:19.001Z</time></trkpt><trkpt lat="45.90209723461517" lon="10.241068661435895"><ele>738.0</ele><time>2026-05-03T13:54:21.001Z</time></trkpt><trkpt lat="45.90206843419299" lon="10.240987022123095"><ele>736.0</ele><time>2026-05-03T13:54:23.001Z</time></trkpt><trkpt lat="45.902049280698016" lon="10.240878953383955"><ele>736.0</ele><time>2026-05-03T13:54:26.001Z</time></trkpt><trkpt lat="45.902039426274946" lon="10.240730986489918"><ele>736.0</ele><time>2026-05-03T13:54:30.001Z</time></trkpt><trkpt lat="45.90202606968068" lon="10.240623803683683"><ele>736.0</ele><time>2026-05-03T13:54:34.001Z</time></trkpt><trkpt lat="45.90201810922794" lon="10.24052324968817"><ele>736.0</ele><time>2026-05-03T13:54:38.001Z</time></trkpt><trkpt lat="45.901979033228244" lon="10.240420674159118"><ele>736.0</ele><time>2026-05-03T13:54:43.001Z</time></trkpt><trkpt lat="45.901985271865584" lon="10.240295593572847"><ele>736.0</ele><time>2026-05-03T13:54:47.001Z</time></trkpt><trkpt lat="45.902010769841596" lon="10.240192856267626"><ele>734.6666666666667</ele><time>2026-05-03T13:54:51.002Z</time></trkpt><trkpt lat="45.90197531366449" lon="10.240098830173116"><ele>733.3333333333334</ele><time>2026-05-03T13:54:53.002Z</time></trkpt><trkpt lat="45.90196309803324" lon="10.239971112024152"><ele>732.0</ele><time>2026-05-03T13:54:56.002Z</time></trkpt><trkpt lat="45.90200356025565" lon="10.23986551496863"><ele>730.6666666666666</ele><time>2026-05-03T13:54:59.002Z</time></trkpt><trkpt lat="45.90204838476524" lon="10.239787983345135"><ele>729.3333333333333</ele><time>2026-05-03T13:55:03.002Z</time></trkpt><trkpt lat="45.902033878453" lon="10.239671205198839"><ele>728.0</ele><time>2026-05-03T13:55:06.002Z</time></trkpt><trkpt lat="45.90202759958243" lon="10.23955159935065"><ele>725.8333333333333</ele><time>2026-05-03T13:55:10.002Z</time></trkpt><trkpt lat="45.902004365147164" lon="10.239434515667307"><ele>723.6666666666666</ele><time>2026-05-03T13:55:14.002Z</time></trkpt><trkpt lat="45.901956003440155" lon="10.239366223721214"><ele>721.5</ele><time>2026-05-03T13:55:18.001Z</time></trkpt><trkpt lat="45.9018858543572" lon="10.239321181064385"><ele>719.3333333333334</ele><time>2026-05-03T13:55:21.001Z</time></trkpt><trkpt lat="45.90180468376779" lon="10.239287038323207"><ele>717.1666666666667</ele><time>2026-05-03T13:55:24.001Z</time></trkpt><trkpt lat="45.90173053024984" lon="10.23926156216721"><ele>715.0</ele><time>2026-05-03T13:55:29.001Z</time></trkpt><trkpt lat="45.901670692634085" lon="10.239220999347712"><ele>719.8333333333334</ele><time>2026-05-03T13:55:34.001Z</time></trkpt><trkpt lat="45.901595054568595" lon="10.239201095965916"><ele>724.6666666666667</ele><time>2026-05-03T13:55:37.001Z</time></trkpt><trkpt lat="45.90151838593949" lon="10.239186221121125"><ele>729.5</ele><time>2026-05-03T13:55:41.001Z</time></trkpt><trkpt lat="45.90144137008014" lon="10.239186299439968"><ele>734.3333333333334</ele><time>2026-05-03T13:55:48.001Z</time></trkpt><trkpt lat="45.901374455506364" lon="10.23912764883177"><ele>739.1666666666666</ele><time>2026-05-03T13:55:51.001Z</time></trkpt><trkpt lat="45.90130453472386" lon="10.239107993542218"><ele>744.0</ele><time>2026-05-03T13:55:54.001Z</time></trkpt><trkpt lat="45.90123443031694" lon="10.239141085751383"><ele>744.0</ele><time>2026-05-03T13:55:56.001Z</time></trkpt><trkpt lat="45.901153436665055" lon="10.23912487402598"><ele>744.0</ele><time>2026-05-03T13:56:00.001Z</time></trkpt><trkpt lat="45.901067570417666" lon="10.23909623493869"><ele>744.0</ele><time>2026-05-03T13:56:05.001Z</time></trkpt><trkpt lat="45.900999170276044" lon="10.239075779274994"><ele>744.0</ele><time>2026-05-03T13:56:08.001Z</time></trkpt><trkpt lat="45.900932942115574" lon="10.239050508453804"><ele>744.0</ele><time>2026-05-03T13:56:11.001Z</time></trkpt><trkpt lat="45.900857805375225" lon="10.239043876338451"><ele>744.0</ele><time>2026-05-03T13:56:14.001Z</time></trkpt><trkpt lat="45.90077746897137" lon="10.23911377970216"><ele>744.1666666666666</ele><time>2026-05-03T13:56:18.001Z</time></trkpt><trkpt lat="45.90069004132491" lon="10.239104370987222"><ele>744.3333333333334</ele><time>2026-05-03T13:56:22.001Z</time></trkpt><trkpt lat="45.90062539904302" lon="10.239045336429104"><ele>744.5</ele><time>2026-05-03T13:56:25.001Z</time></trkpt><trkpt lat="45.9005513514736" lon="10.23898884035864"><ele>744.6666666666667</ele><time>2026-05-03T13:56:29.001Z</time></trkpt><trkpt lat="45.9004718507884" lon="10.238931088051753"><ele>744.8333333333334</ele><time>2026-05-03T13:56:33.001Z</time></trkpt><trkpt lat="45.900419797353614" lon="10.2388746836995"><ele>745.0</ele><time>2026-05-03T13:56:36.001Z</time></trkpt><trkpt lat="45.90041399143869" lon="10.238779839843334"><ele>742.5</ele><time>2026-05-03T13:56:39.001Z</time></trkpt><trkpt lat="45.90038150631387" lon="10.238659367821183"><ele>740.0</ele><time>2026-05-03T13:56:43.001Z</time></trkpt><trkpt lat="45.9003334648097" lon="10.238578828208139"><ele>737.5</ele><time>2026-05-03T13:56:46.001Z</time></trkpt><trkpt lat="45.90026975790891" lon="10.238523908114882"><ele>735.0</ele><time>2026-05-03T13:56:50.001Z</time></trkpt><trkpt lat="45.900199507488715" lon="10.238501721695185"><ele>732.5</ele><time>2026-05-03T13:56:53.001Z</time></trkpt><trkpt lat="45.90013136940712" lon="10.238491338865098"><ele>730.0</ele><time>2026-05-03T13:56:56.001Z</time></trkpt><trkpt lat="45.90005328542906" lon="10.238481228355958"><ele>730.0</ele><time>2026-05-03T13:56:59.001Z</time></trkpt><trkpt lat="45.899971321611154" lon="10.238450328182044"><ele>730.0</ele><time>2026-05-03T13:57:04.001Z</time></trkpt><trkpt lat="45.899895172570446" lon="10.238389091843768"><ele>730.0</ele><time>2026-05-03T13:57:06.001Z</time></trkpt><trkpt lat="45.899841057914124" lon="10.238341415702626"><ele>730.0</ele><time>2026-05-03T13:57:08.002Z</time></trkpt><trkpt lat="45.89976851337707" lon="10.238298542313943"><ele>730.0</ele><time>2026-05-03T13:57:11.002Z</time></trkpt><trkpt lat="45.89969925299868" lon="10.238294089089592"><ele>730.0</ele><time>2026-05-03T13:57:14.002Z</time></trkpt><trkpt lat="45.89963318391159" lon="10.238273848517997"><ele>730.0</ele><time>2026-05-03T13:57:18.002Z</time></trkpt><trkpt lat="45.8995507812313" lon="10.238202395336625"><ele>730.0</ele><time>2026-05-03T13:57:21.002Z</time></trkpt><trkpt lat="45.89949238861454" lon="10.238144679404966"><ele>730.0</ele><time>2026-05-03T13:57:24Z</time></trkpt><trkpt lat="45.89941526007252" lon="10.238161223979656"><ele>730.0</ele><time>2026-05-03T13:57:28Z</time></trkpt><trkpt lat="45.89934357953056" lon="10.238152948581321"><ele>730.0</ele><time>2026-05-03T13:57:32Z</time></trkpt><trkpt lat="45.899283590832255" lon="10.23812405735885"><ele>730.0</ele><time>2026-05-03T13:57:35Z</time></trkpt><trkpt lat="45.89921333890062" lon="10.238090627951495"><ele>730.0000000000001</ele><time>2026-05-03T13:57:41Z</time></trkpt><trkpt lat="45.89927705452397" lon="10.238162104128415"><ele>730.0</ele><time>2026-05-03T14:00:15Z</time></trkpt><trkpt lat="45.899346051166326" lon="10.238154211721064"><ele>730.0</ele><time>2026-05-03T14:00:33Z</time></trkpt><trkpt lat="45.89933881117006" lon="10.238056981589386"><ele>730.0</ele><time>2026-05-03T14:00:40Z</time></trkpt><trkpt lat="45.899353005531296" lon="10.237957264356554"><ele>730.0</ele><time>2026-05-03T14:01:12.001Z</time></trkpt><trkpt lat="45.89939685914728" lon="10.237888747776086"><ele>730.0000000000001</ele><time>2026-05-03T14:01:15.001Z</time></trkpt><trkpt lat="45.89944440905565" lon="10.237820126274588"><ele>730.0</ele><time>2026-05-03T14:01:20.001Z</time></trkpt><trkpt lat="45.89950989888318" lon="10.237834705806424"><ele>727.5714285714287</ele><time>2026-05-03T14:01:24.001Z</time></trkpt><trkpt lat="45.8995429371435" lon="10.237747171014682"><ele>725.1428571428571</ele><time>2026-05-03T14:01:49.999Z</time></trkpt><trkpt lat="45.899497204976164" lon="10.237681118996775"><ele>722.7142857142858</ele><time>2026-05-03T14:01:54Z</time></trkpt><trkpt lat="45.899450603670935" lon="10.237603932123664"><ele>720.2857142857143</ele><time>2026-05-03T14:01:58Z</time></trkpt><trkpt lat="45.899413504864185" lon="10.237502088766377"><ele>717.8571428571429</ele><time>2026-05-03T14:02:02Z</time></trkpt><trkpt lat="45.89935967437047" lon="10.237448169240128"><ele>715.4285714285714</ele><time>2026-05-03T14:02:05Z</time></trkpt><trkpt lat="45.89933105238335" lon="10.237359688349155"><ele>713.0</ele><time>2026-05-03T14:02:09Z</time></trkpt><trkpt lat="45.89934770747707" lon="10.237232936873399"><ele>711.0</ele><time>2026-05-03T14:02:12Z</time></trkpt><trkpt lat="45.899353534257564" lon="10.237123398890878"><ele>709.0</ele><time>2026-05-03T14:02:15Z</time></trkpt><trkpt lat="45.89935503664077" lon="10.237029929547075"><ele>707.0</ele><time>2026-05-03T14:02:18Z</time></trkpt><trkpt lat="45.89936202111555" lon="10.236934447978332"><ele>705.0</ele><time>2026-05-03T14:02:22Z</time></trkpt><trkpt lat="45.89935628575525" lon="10.236814290533276"><ele>703.0</ele><time>2026-05-03T14:02:26Z</time></trkpt><trkpt lat="45.89935790821248" lon="10.236709923634848"><ele>701.0</ele><time>2026-05-03T14:02:29Z</time></trkpt><trkpt lat="45.899371451199464" lon="10.236576874728005"><ele>701.0</ele><time>2026-05-03T14:02:34Z</time></trkpt><trkpt lat="45.89933697125099" lon="10.236666230857752"><ele>701.0</ele><time>2026-05-03T14:03:02.001Z</time></trkpt><trkpt lat="45.89931677401769" lon="10.236521397133057"><ele>701.0</ele><time>2026-05-03T14:05:13.001Z</time></trkpt><trkpt lat="45.89931802667576" lon="10.236423495715915"><ele>701.0</ele><time>2026-05-03T14:05:19.001Z</time></trkpt><trkpt lat="45.89931176593574" lon="10.236320816334164"><ele>701.0</ele><time>2026-05-03T14:05:25.001Z</time></trkpt><trkpt lat="45.89932777009782" lon="10.236218149118107"><ele>701.0</ele><time>2026-05-03T14:05:35.001Z</time></trkpt><trkpt lat="45.899390594699284" lon="10.236172035190751"><ele>702.0</ele><time>2026-05-03T14:05:48Z</time></trkpt><trkpt lat="45.899462642664865" lon="10.23613186962595"><ele>703.0</ele><time>2026-05-03T14:05:56Z</time></trkpt><trkpt lat="45.899515396718684" lon="10.236063538144167"><ele>704.0</ele><time>2026-05-03T14:06:09Z</time></trkpt><trkpt lat="45.899551497345534" lon="10.235987740109874"><ele>705.0</ele><time>2026-05-03T14:06:17Z</time></trkpt><trkpt lat="45.89960424056677" lon="10.235921398743406"><ele>706.0</ele><time>2026-05-03T14:06:24Z</time></trkpt><trkpt lat="45.899658647078674" lon="10.235860837120127"><ele>707.0</ele><time>2026-05-03T14:06:33.001Z</time></trkpt><trkpt lat="45.8997086851506" lon="10.23579237541537"><ele>708.0</ele><time>2026-05-03T14:06:43.001Z</time></trkpt><trkpt lat="45.89972250958348" lon="10.235700083840472"><ele>709.5714285714286</ele><time>2026-05-03T14:06:49.001Z</time></trkpt><trkpt lat="45.89977093741989" lon="10.235619104864323"><ele>711.1428571428571</ele><time>2026-05-03T14:06:58.001Z</time></trkpt><trkpt lat="45.89979791561775" lon="10.235530191740086"><ele>712.7142857142857</ele><time>2026-05-03T14:07:15.001Z</time></trkpt><trkpt lat="45.899854098533005" lon="10.235479209527767"><ele>714.2857142857142</ele><time>2026-05-03T14:07:25.001Z</time></trkpt><trkpt lat="45.89987769705809" lon="10.235389865425919"><ele>715.8571428571429</ele><time>2026-05-03T14:07:33.002Z</time></trkpt><trkpt lat="45.89986420776262" lon="10.235283657819807"><ele>717.4285714285713</ele><time>2026-05-03T14:07:40.002Z</time></trkpt><trkpt lat="45.8998357425038" lon="10.235194548369321"><ele>719.0</ele><time>2026-05-03T14:07:48.002Z</time></trkpt><trkpt lat="45.89989840297904" lon="10.235171895719201"><ele>718.9999999999999</ele><time>2026-05-03T14:08:03.001Z</time></trkpt><trkpt lat="45.899952227746354" lon="10.235113061890887"><ele>719.0</ele><time>2026-05-03T14:08:09.001Z</time></trkpt><trkpt lat="45.90000338599004" lon="10.235042528786263"><ele>719.0</ele><time>2026-05-03T14:08:14.001Z</time></trkpt><trkpt lat="45.90002108414225" lon="10.23495446076727"><ele>719.0</ele><time>2026-05-03T14:08:23.001Z</time></trkpt><trkpt lat="45.90003860298708" lon="10.234862729402305"><ele>719.0</ele><time>2026-05-03T14:08:31.001Z</time></trkpt><trkpt lat="45.900040702421144" lon="10.234751793550405"><ele>718.9999999999999</ele><time>2026-05-03T14:08:37.001Z</time></trkpt><trkpt lat="45.90003307162558" lon="10.23465642488743"><ele>719.0</ele><time>2026-05-03T14:08:43.001Z</time></trkpt><trkpt lat="45.89999670980567" lon="10.23457074622735"><ele>706.0</ele><time>2026-05-03T14:08:49.001Z</time></trkpt><trkpt lat="45.89991731710637" lon="10.234515509236733"><ele>706.0</ele><time>2026-05-03T14:08:57.001Z</time></trkpt><trkpt lat="45.89989320696497" lon="10.234425641520808"><ele>706.0</ele><time>2026-05-03T14:09:23.002Z</time></trkpt><trkpt lat="45.899886468268434" lon="10.234516346292834"><ele>706.0</ele><time>2026-05-03T14:10:02.001Z</time></trkpt></trkseg></trk></gpx>